LESTER weather

Lesters Field
Augusta, Arkansas, United States

Public forecast

Using degrees Fahrenheit for public forecast. Weather courtesy of forecast.io.

Closest aviation weather report (METAR) to Lesters Field

Closest report is Searcy Municipal Airport, 19.8 nm (36.8 km) WSW. Retrieved 2020/01/26 14:40 UTC (0 seconds ago):

KSRC 261440Z AUTO 00000KT 3SM BR SCT080 07/07 A3007 RMK AO2

Closest aviation forecast (TAF) to Lesters Field

Closest forecast is Little Rock Air Force Base, 45.2 nm (83.8 km) WSW. Retrieved 2020/01/26 15:13 UTC (0 seconds ago):

TAF KLRF 261500Z 2615/2721 20005KT 9999 BKN070 QNH3004INS BECMG 2617/2618 VRB04KT 9999 FEW200 QNH2998INS BECMG 2623/2624 30006KT 9999 FEW020 BKN050 QNH2997INS BECMG 2710/2711 34006KT 9999 BKN020 QNH2999INS TX14/2621Z TN03/2711Z